sensor_id;sensor_type;location;lat;lon;timestamp;temperature;humidity
68128;SHT30;54931;52.098;21.006;2024-03-23T00:54:54;8.91;82.51
68128;SHT30;54931;52.098;21.006;2024-03-23T00:57:42;8.91;82.69
68128;SHT30;54931;52.098;21.006;2024-03-23T01:00:29;8.88;82.80
68128;SHT30;54931;52.098;21.006;2024-03-23T01:03:16;8.88;82.93
68128;SHT30;54931;52.098;21.006;2024-03-23T01:06:03;8.87;83.00
68128;SHT30;54931;52.098;21.006;2024-03-23T01:08:51;8.87;83.10
68128;SHT30;54931;52.098;21.006;2024-03-23T01:11:39;8.85;83.26
68128;SHT30;54931;52.098;21.006;2024-03-23T01:14:26;8.86;83.45
68128;SHT30;54931;52.098;21.006;2024-03-23T01:17:13;8.85;83.56
68128;SHT30;54931;52.098;21.006;2024-03-23T01:20:01;8.84;83.56
68128;SHT30;54931;52.098;21.006;2024-03-23T01:22:49;8.83;83.58
68128;SHT30;54931;52.098;21.006;2024-03-23T01:25:37;8.83;83.70
68128;SHT30;54931;52.098;21.006;2024-03-23T01:28:24;8.82;83.82
68128;SHT30;54931;52.098;21.006;2024-03-23T01:31:11;8.81;83.88
68128;SHT30;54931;52.098;21.006;2024-03-23T01:33:58;8.80;84.02
68128;SHT30;54931;52.098;21.006;2024-03-23T01:36:46;8.81;84.12
68128;SHT30;54931;52.098;21.006;2024-03-23T01:39:33;8.81;84.21
68128;SHT30;54931;52.098;21.006;2024-03-23T01:42:20;8.81;84.27
68128;SHT30;54931;52.098;21.006;2024-03-23T01:45:08;8.80;84.29
68128;SHT30;54931;52.098;21.006;2024-03-23T01:47:56;8.81;84.43
68128;SHT30;54931;52.098;21.006;2024-03-23T01:50:44;8.81;84.54
68128;SHT30;54931;52.098;21.006;2024-03-23T01:53:31;8.82;84.62
68128;SHT30;54931;52.098;21.006;2024-03-23T01:56:18;8.83;84.65
68128;SHT30;54931;52.098;21.006;2024-03-23T01:59:06;8.83;84.75
68128;SHT30;54931;52.098;21.006;2024-03-23T02:01:53;8.85;84.67
68128;SHT30;54931;52.098;21.006;2024-03-23T02:04:40;8.85;84.68
68128;SHT30;54931;52.098;21.006;2024-03-23T02:07:27;8.86;84.77
68128;SHT30;54931;52.098;21.006;2024-03-23T02:10:15;8.87;84.83
68128;SHT30;54931;52.098;21.006;2024-03-23T02:13:02;8.86;84.81
68128;SHT30;54931;52.098;21.006;2024-03-23T02:15:50;8.87;84.96
68128;SHT30;54931;52.098;21.006;2024-03-23T02:18:37;8.87;84.96
68128;SHT30;54931;52.098;21.006;2024-03-23T02:21:24;8.88;84.92
68128;SHT30;54931;52.098;21.006;2024-03-23T02:24:12;8.88;85.13
68128;SHT30;54931;52.098;21.006;2024-03-23T02:26:59;8.89;85.30
68128;SHT30;54931;52.098;21.006;2024-03-23T02:29:46;8.91;85.24
68128;SHT30;54931;52.098;21.006;2024-03-23T02:32:33;8.90;85.19
68128;SHT30;54931;52.098;21.006;2024-03-23T02:35:20;8.91;85.25
68128;SHT30;54931;52.098;21.006;2024-03-23T02:38:08;8.90;85.27
68128;SHT30;54931;52.098;21.006;2024-03-23T02:41:00;8.92;85.27
68128;SHT30;54931;52.098;21.006;2024-03-23T02:43:49;8.92;85.24
68128;SHT30;54931;52.098;21.006;2024-03-23T02:46:37;8.94;85.34
68128;SHT30;54931;52.098;21.006;2024-03-23T02:49:25;8.94;85.44
68128;SHT30;54931;52.098;21.006;2024-03-23T02:52:13;8.96;85.46
68128;SHT30;54931;52.098;21.006;2024-03-23T02:55:00;8.96;85.46
68128;SHT30;54931;52.098;21.006;2024-03-23T02:57:51;8.97;85.56
68128;SHT30;54931;52.098;21.006;2024-03-23T03:00:38;8.98;85.53
68128;SHT30;54931;52.098;21.006;2024-03-23T03:03:26;8.99;85.60
68128;SHT30;54931;52.098;21.006;2024-03-23T03:06:22;8.99;85.60
68128;SHT30;54931;52.098;21.006;2024-03-23T03:09:10;9.00;85.61
68128;SHT30;54931;52.098;21.006;2024-03-23T03:11:57;9.01;85.62
68128;SHT30;54931;52.098;21.006;2024-03-23T03:14:44;9.01;85.66
68128;SHT30;54931;52.098;21.006;2024-03-23T03:17:31;9.01;85.73
68128;SHT30;54931;52.098;21.006;2024-03-23T03:20:18;9.00;85.72
68128;SHT30;54931;52.098;21.006;2024-03-23T03:23:06;9.01;85.79
68128;SHT30;54931;52.098;21.006;2024-03-23T03:25:54;9.00;85.85
68128;SHT30;54931;52.098;21.006;2024-03-23T03:28:41;9.01;85.79
68128;SHT30;54931;52.098;21.006;2024-03-23T03:31:28;9.02;85.76
68128;SHT30;54931;52.098;21.006;2024-03-23T03:34:15;9.02;85.77
68128;SHT30;54931;52.098;21.006;2024-03-23T03:37:03;9.02;85.92
68128;SHT30;54931;52.098;21.006;2024-03-23T03:39:51;9.03;85.88
68128;SHT30;54931;52.098;21.006;2024-03-23T03:42:38;9.03;86.04
68128;SHT30;54931;52.098;21.006;2024-03-23T03:45:26;9.02;86.16
68128;SHT30;54931;52.098;21.006;2024-03-23T03:48:13;9.02;86.11
68128;SHT30;54931;52.098;21.006;2024-03-23T03:51:00;9.02;86.13
68128;SHT30;54931;52.098;21.006;2024-03-23T03:53:47;9.03;86.11
68128;SHT30;54931;52.098;21.006;2024-03-23T03:56:35;9.04;86.13
68128;SHT30;54931;52.098;21.006;2024-03-23T03:59:22;9.03;86.10
68128;SHT30;54931;52.098;21.006;2024-03-23T04:02:10;9.04;86.20
68128;SHT30;54931;52.098;21.006;2024-03-23T04:04:57;9.04;86.15
68128;SHT30;54931;52.098;21.006;2024-03-23T04:07:44;9.05;86.10
68128;SHT30;54931;52.098;21.006;2024-03-23T04:10:32;9.05;86.22
68128;SHT30;54931;52.098;21.006;2024-03-23T04:13:19;9.05;86.21
68128;SHT30;54931;52.098;21.006;2024-03-23T04:16:06;9.03;86.21
68128;SHT30;54931;52.098;21.006;2024-03-23T04:18:54;9.04;86.19
68128;SHT30;54931;52.098;21.006;2024-03-23T04:21:41;9.03;86.20
68128;SHT30;54931;52.098;21.006;2024-03-23T04:24:28;9.04;86.24
68128;SHT30;54931;52.098;21.006;2024-03-23T04:27:15;9.03;86.20
68128;SHT30;54931;52.098;21.006;2024-03-23T04:30:03;9.05;86.18
68128;SHT30;54931;52.098;21.006;2024-03-23T04:32:56;9.04;86.13
68128;SHT30;54931;52.098;21.006;2024-03-23T04:35:44;9.04;86.13
68128;SHT30;54931;52.098;21.006;2024-03-23T04:38:36;9.05;86.15
68128;SHT30;54931;52.098;21.006;2024-03-23T04:41:24;9.04;86.13
68128;SHT30;54931;52.098;21.006;2024-03-23T04:44:11;9.04;86.16
68128;SHT30;54931;52.098;21.006;2024-03-23T04:46:58;9.05;86.18
68128;SHT30;54931;52.098;21.006;2024-03-23T04:49:45;9.05;86.22
68128;SHT30;54931;52.098;21.006;2024-03-23T04:52:33;9.04;86.19
68128;SHT30;54931;52.098;21.006;2024-03-23T04:55:20;9.05;86.20
68128;SHT30;54931;52.098;21.006;2024-03-23T04:58:09;9.05;86.20
68128;SHT30;54931;52.098;21.006;2024-03-23T05:00:57;9.06;86.22
68128;SHT30;54931;52.098;21.006;2024-03-23T05:03:44;9.06;86.35
68128;SHT30;54931;52.098;21.006;2024-03-23T05:06:31;9.08;86.50
68128;SHT30;54931;52.098;21.006;2024-03-23T05:09:18;9.10;86.51
68128;SHT30;54931;52.098;21.006;2024-03-23T05:12:06;9.10;86.47
68128;SHT30;54931;52.098;21.006;2024-03-23T05:14:53;9.13;86.50
68128;SHT30;54931;52.098;21.006;2024-03-23T05:17:40;9.16;86.47
68128;SHT30;54931;52.098;21.006;2024-03-23T05:20:28;9.18;86.37
68128;SHT30;54931;52.098;21.006;2024-03-23T05:23:15;9.20;86.38
68128;SHT30;54931;52.098;21.006;2024-03-23T05:26:02;9.19;86.30
68128;SHT30;54931;52.098;21.006;2024-03-23T05:28:50;9.20;86.26
68128;SHT30;54931;52.098;21.006;2024-03-23T05:31:37;9.18;86.26
68128;SHT30;54931;52.098;21.006;2024-03-23T05:34:24;9.19;86.30
68128;SHT30;54931;52.098;21.006;2024-03-23T05:37:12;9.20;86.31
68128;SHT30;54931;52.098;21.006;2024-03-23T05:40:00;9.20;86.35
68128;SHT30;54931;52.098;21.006;2024-03-23T05:42:47;9.20;86.37
68128;SHT30;54931;52.098;21.006;2024-03-23T05:45:35;9.21;86.34
68128;SHT30;54931;52.098;21.006;2024-03-23T05:48:22;9.23;86.32
68128;SHT30;54931;52.098;21.006;2024-03-23T05:51:10;9.24;86.30
68128;SHT30;54931;52.098;21.006;2024-03-23T05:53:59;9.25;86.27
68128;SHT30;54931;52.098;21.006;2024-03-23T05:56:46;9.25;86.23
68128;SHT30;54931;52.098;21.006;2024-03-23T05:59:33;9.25;86.22
68128;SHT30;54931;52.098;21.006;2024-03-23T06:02:20;9.26;86.28
68128;SHT30;54931;52.098;21.006;2024-03-23T06:05:07;9.27;86.29
68128;SHT30;54931;52.098;21.006;2024-03-23T06:07:55;9.29;86.32
68128;SHT30;54931;52.098;21.006;2024-03-23T06:10:42;9.29;86.32
68128;SHT30;54931;52.098;21.006;2024-03-23T06:13:29;9.30;86.30
68128;SHT30;54931;52.098;21.006;2024-03-23T06:16:17;9.30;86.30
68128;SHT30;54931;52.098;21.006;2024-03-23T06:19:09;9.31;86.30
68128;SHT30;54931;52.098;21.006;2024-03-23T06:21:56;9.32;86.30
68128;SHT30;54931;52.098;21.006;2024-03-23T06:24:44;9.33;86.29
68128;SHT30;54931;52.098;21.006;2024-03-23T06:27:31;9.33;86.29
68128;SHT30;54931;52.098;21.006;2024-03-23T06:30:19;9.35;86.35
68128;SHT30;54931;52.098;21.006;2024-03-23T06:33:06;9.35;86.46
68128;SHT30;54931;52.098;21.006;2024-03-23T06:35:53;9.36;86.54
68128;SHT30;54931;52.098;21.006;2024-03-23T06:38:41;9.37;86.52
68128;SHT30;54931;52.098;21.006;2024-03-23T06:41:28;9.38;86.53
68128;SHT30;54931;52.098;21.006;2024-03-23T06:44:16;9.38;86.52
68128;SHT30;54931;52.098;21.006;2024-03-23T06:47:04;9.40;86.50
68128;SHT30;54931;52.098;21.006;2024-03-23T06:49:51;9.41;86.57
68128;SHT30;54931;52.098;21.006;2024-03-23T06:52:39;9.42;86.63
68128;SHT30;54931;52.098;21.006;2024-03-23T06:55:26;9.44;86.59
68128;SHT30;54931;52.098;21.006;2024-03-23T06:58:13;9.46;86.66
68128;SHT30;54931;52.098;21.006;2024-03-23T07:01:01;9.48;86.60
68128;SHT30;54931;52.098;21.006;2024-03-23T07:03:48;9.51;86.60
68128;SHT30;54931;52.098;21.006;2024-03-23T07:06:42;9.52;86.55
68128;SHT30;54931;52.098;21.006;2024-03-23T07:09:30;9.54;86.59
68128;SHT30;54931;52.098;21.006;2024-03-23T07:12:18;9.53;86.59
68128;SHT30;54931;52.098;21.006;2024-03-23T07:15:06;9.53;86.64
68128;SHT30;54931;52.098;21.006;2024-03-23T07:17:55;9.53;86.76
68128;SHT30;54931;52.098;21.006;2024-03-23T07:20:42;9.56;86.75
68128;SHT30;54931;52.098;21.006;2024-03-23T07:23:41;9.57;86.66
68128;SHT30;54931;52.098;21.006;2024-03-23T07:26:31;9.59;86.66
68128;SHT30;54931;52.098;21.006;2024-03-23T07:29:18;9.61;86.68
68128;SHT30;54931;52.098;21.006;2024-03-23T07:32:06;9.64;86.65
68128;SHT30;54931;52.098;21.006;2024-03-23T07:34:53;9.65;86.67
68128;SHT30;54931;52.098;21.006;2024-03-23T07:37:41;9.68;86.71
68128;SHT30;54931;52.098;21.006;2024-03-23T07:40:29;9.69;86.62
68128;SHT30;54931;52.098;21.006;2024-03-23T07:43:17;9.71;86.53
68128;SHT30;54931;52.098;21.006;2024-03-23T07:46:04;9.72;86.54
68128;SHT30;54931;52.098;21.006;2024-03-23T07:48:52;9.72;86.57
68128;SHT30;54931;52.098;21.006;2024-03-23T07:51:39;9.73;86.53
68128;SHT30;54931;52.098;21.006;2024-03-23T07:54:28;9.74;86.55
68128;SHT30;54931;52.098;21.006;2024-03-23T07:57:15;9.77;86.50
68128;SHT30;54931;52.098;21.006;2024-03-23T08:00:03;9.80;86.42
68128;SHT30;54931;52.098;21.006;2024-03-23T08:02:51;9.82;86.32
68128;SHT30;54931;52.098;21.006;2024-03-23T08:05:38;9.86;86.24
68128;SHT30;54931;52.098;21.006;2024-03-23T08:08:26;9.93;86.22
68128;SHT30;54931;52.098;21.006;2024-03-23T08:11:13;9.99;85.88
68128;SHT30;54931;52.098;21.006;2024-03-23T08:14:01;10.08;85.75
68128;SHT30;54931;52.098;21.006;2024-03-23T08:16:48;10.19;85.89
68128;SHT30;54931;52.098;21.006;2024-03-23T08:19:36;10.29;85.81
68128;SHT30;54931;52.098;21.006;2024-03-23T08:22:24;10.33;85.29
68128;SHT30;54931;52.098;21.006;2024-03-23T08:25:11;10.43;85.48
68128;SHT30;54931;52.098;21.006;2024-03-23T08:27:59;10.46;84.88
68128;SHT30;54931;52.098;21.006;2024-03-23T08:30:46;10.46;84.41
68128;SHT30;54931;52.098;21.006;2024-03-23T08:33:34;10.58;85.09
68128;SHT30;54931;52.098;21.006;2024-03-23T08:36:21;10.84;84.72
68128;SHT30;54931;52.098;21.006;2024-03-23T08:39:09;11.43;85.51
68128;SHT30;54931;52.098;21.006;2024-03-23T08:41:57;11.90;83.50
68128;SHT30;54931;52.098;21.006;2024-03-23T08:44:44;12.43;82.46
68128;SHT30;54931;52.098;21.006;2024-03-23T08:47:36;13.05;81.58
68128;SHT30;54931;52.098;21.006;2024-03-23T08:50:23;13.54;77.26
68128;SHT30;54931;52.098;21.006;2024-03-23T08:53:11;13.81;76.31
68128;SHT30;54931;52.098;21.006;2024-03-23T08:55:59;14.04;75.53
68128;SHT30;54931;52.098;21.006;2024-03-23T08:58:50;14.14;74.21
68128;SHT30;54931;52.098;21.006;2024-03-23T09:01:37;14.17;73.42
68128;SHT30;54931;52.098;21.006;2024-03-23T09:04:25;14.57;74.33
68128;SHT30;54931;52.098;21.006;2024-03-23T09:07:12;15.09;74.37
68128;SHT30;54931;52.098;21.006;2024-03-23T09:09:59;15.39;70.70
68128;SHT30;54931;52.098;21.006;2024-03-23T09:12:47;15.76;71.55
68128;SHT30;54931;52.098;21.006;2024-03-23T09:15:35;15.89;67.60
68128;SHT30;54931;52.098;21.006;2024-03-23T09:18:24;15.60;66.35
68128;SHT30;54931;52.098;21.006;2024-03-23T09:21:12;15.62;66.68
68128;SHT30;54931;52.098;21.006;2024-03-23T09:24:00;15.61;65.85
68128;SHT30;54931;52.098;21.006;2024-03-23T09:26:48;15.76;65.78
68128;SHT30;54931;52.098;21.006;2024-03-23T09:29:35;15.86;65.12
68128;SHT30;54931;52.098;21.006;2024-03-23T09:32:23;16.07;65.84
68128;SHT30;54931;52.098;21.006;2024-03-23T09:35:10;16.31;65.56
68128;SHT30;54931;52.098;21.006;2024-03-23T09:37:58;16.30;64.10
68128;SHT30;54931;52.098;21.006;2024-03-23T09:40:46;16.10;63.39
68128;SHT30;54931;52.098;21.006;2024-03-23T09:43:37;15.96;64.45
68128;SHT30;54931;52.098;21.006;2024-03-23T09:46:24;15.83;64.73
68128;SHT30;54931;52.098;21.006;2024-03-23T09:49:12;15.60;64.29
68128;SHT30;54931;52.098;21.006;2024-03-23T09:52:00;15.44;65.98
68128;SHT30;54931;52.098;21.006;2024-03-23T09:54:48;15.32;66.15
68128;SHT30;54931;52.098;21.006;2024-03-23T09:57:36;15.28;66.94
68128;SHT30;54931;52.098;21.006;2024-03-23T10:00:23;15.15;65.24
68128;SHT30;54931;52.098;21.006;2024-03-23T10:03:11;14.90;65.09
68128;SHT30;54931;52.098;21.006;2024-03-23T10:06:02;14.63;65.36
68128;SHT30;54931;52.098;21.006;2024-03-23T10:08:52;14.70;66.89
68128;SHT30;54931;52.098;21.006;2024-03-23T10:11:41;15.00;66.24
68128;SHT30;54931;52.098;21.006;2024-03-23T10:14:30;15.27;65.49
68128;SHT30;54931;52.098;21.006;2024-03-23T10:20:09;15.66;63.07
68128;SHT30;54931;52.098;21.006;2024-03-23T10:22:57;16.10;62.98
68128;SHT30;54931;52.098;21.006;2024-03-23T10:25:45;16.27;60.32
68128;SHT30;54931;52.098;21.006;2024-03-23T10:28:32;16.39;61.90
68128;SHT30;54931;52.098;21.006;2024-03-23T10:31:20;16.72;60.19
68128;SHT30;54931;52.098;21.006;2024-03-23T10:34:08;17.05;60.58
68128;SHT30;54931;52.098;21.006;2024-03-23T10:36:55;17.44;58.26
68128;SHT30;54931;52.098;21.006;2024-03-23T10:39:44;17.44;57.19
68128;SHT30;54931;52.098;21.006;2024-03-23T10:42:32;17.47;57.45
68128;SHT30;54931;52.098;21.006;2024-03-23T10:45:21;17.65;58.36
68128;SHT30;54931;52.098;21.006;2024-03-23T10:48:09;17.97;57.77
68128;SHT30;54931;52.098;21.006;2024-03-23T10:50:56;18.04;55.35
68128;SHT30;54931;52.098;21.006;2024-03-23T10:53:44;18.05;54.72
68128;SHT30;54931;52.098;21.006;2024-03-23T10:56:33;18.15;54.31
68128;SHT30;54931;52.098;21.006;2024-03-23T10:59:24;18.19;53.84
68128;SHT30;54931;52.098;21.006;2024-03-23T11:02:19;18.23;53.56
68128;SHT30;54931;52.098;21.006;2024-03-23T11:08:28;18.05;54.00
68128;SHT30;54931;52.098;21.006;2024-03-23T11:11:18;18.32;53.61
68128;SHT30;54931;52.098;21.006;2024-03-23T11:14:08;18.22;51.23
68128;SHT30;54931;52.098;21.006;2024-03-23T11:17:10;18.17;54.10
68128;SHT30;54931;52.098;21.006;2024-03-23T11:19:59;18.20;53.11
68128;SHT30;54931;52.098;21.006;2024-03-23T11:22:47;18.30;52.76
68128;SHT30;54931;52.098;21.006;2024-03-23T11:25:36;18.01;51.86
68128;SHT30;54931;52.098;21.006;2024-03-23T11:28:23;18.13;53.43
68128;SHT30;54931;52.098;21.006;2024-03-23T11:31:11;18.44;52.86
68128;SHT30;54931;52.098;21.006;2024-03-23T11:34:04;18.60;50.50
68128;SHT30;54931;52.098;21.006;2024-03-23T11:37:02;18.55;50.51
68128;SHT30;54931;52.098;21.006;2024-03-23T11:39:51;18.74;52.12
68128;SHT30;54931;52.098;21.006;2024-03-23T11:42:39;18.92;52.24
68128;SHT30;54931;52.098;21.006;2024-03-23T11:45:27;18.99;53.19
68128;SHT30;54931;52.098;21.006;2024-03-23T11:48:16;19.19;52.59
68128;SHT30;54931;52.098;21.006;2024-03-23T11:51:06;19.27;52.41
68128;SHT30;54931;52.098;21.006;2024-03-23T11:53:54;19.14;51.68
68128;SHT30;54931;52.098;21.006;2024-03-23T11:56:53;18.91;53.09
68128;SHT30;54931;52.098;21.006;2024-03-23T11:59:44;18.91;52.61
68128;SHT30;54931;52.098;21.006;2024-03-23T12:02:33;19.01;51.62
68128;SHT30;54931;52.098;21.006;2024-03-23T12:05:21;19.13;50.11
68128;SHT30;54931;52.098;21.006;2024-03-23T12:08:18;19.21;51.47
68128;SHT30;54931;52.098;21.006;2024-03-23T12:11:17;19.41;49.42
68128;SHT30;54931;52.098;21.006;2024-03-23T12:14:04;19.34;49.66
68128;SHT30;54931;52.098;21.006;2024-03-23T12:16:52;19.29;49.49
68128;SHT30;54931;52.098;21.006;2024-03-23T12:19:40;19.27;49.76
68128;SHT30;54931;52.098;21.006;2024-03-23T12:22:28;19.25;49.83
68128;SHT30;54931;52.098;21.006;2024-03-23T12:25:18;19.15;49.64
68128;SHT30;54931;52.098;21.006;2024-03-23T12:28:07;18.92;50.19
68128;SHT30;54931;52.098;21.006;2024-03-23T12:30:54;18.52;49.78
68128;SHT30;54931;52.098;21.006;2024-03-23T12:33:42;18.37;50.19
68128;SHT30;54931;52.098;21.006;2024-03-23T12:36:31;18.52;50.19
68128;SHT30;54931;52.098;21.006;2024-03-23T12:39:19;18.67;49.04
68128;SHT30;54931;52.098;21.006;2024-03-23T12:42:09;18.82;48.61
68128;SHT30;54931;52.098;21.006;2024-03-23T12:44:56;18.69;46.71
68128;SHT30;54931;52.098;21.006;2024-03-23T12:47:44;18.59;49.00
68128;SHT30;54931;52.098;21.006;2024-03-23T12:50:31;18.57;50.04
68128;SHT30;54931;52.098;21.006;2024-03-23T12:53:19;18.50;49.93
68128;SHT30;54931;52.098;21.006;2024-03-23T12:56:06;18.40;50.49
68128;SHT30;54931;52.098;21.006;2024-03-23T12:58:54;18.32;50.78
68128;SHT30;54931;52.098;21.006;2024-03-23T13:01:44;18.08;49.14
68128;SHT30;54931;52.098;21.006;2024-03-23T13:04:32;17.84;49.97
68128;SHT30;54931;52.098;21.006;2024-03-23T13:07:20;17.65;51.04
68128;SHT30;54931;52.098;21.006;2024-03-23T13:10:08;17.55;51.60
68128;SHT30;54931;52.098;21.006;2024-03-23T13:12:56;17.42;52.46
68128;SHT30;54931;52.098;21.006;2024-03-23T13:15:50;17.36;52.91
68128;SHT30;54931;52.098;21.006;2024-03-23T13:18:38;17.33;53.37
68128;SHT30;54931;52.098;21.006;2024-03-23T13:21:26;17.30;52.45
68128;SHT30;54931;52.098;21.006;2024-03-23T13:24:13;17.35;52.79
68128;SHT30;54931;52.098;21.006;2024-03-23T13:27:01;17.38;52.00
68128;SHT30;54931;52.098;21.006;2024-03-23T13:29:49;17.43;53.01
68128;SHT30;54931;52.098;21.006;2024-03-23T13:32:37;17.50;53.24
68128;SHT30;54931;52.098;21.006;2024-03-23T13:35:25;17.54;52.27
68128;SHT30;54931;52.098;21.006;2024-03-23T13:38:12;17.52;52.16
68128;SHT30;54931;52.098;21.006;2024-03-23T13:41:00;17.44;52.08
68128;SHT30;54931;52.098;21.006;2024-03-23T13:43:48;17.33;52.47
68128;SHT30;54931;52.098;21.006;2024-03-23T13:46:35;17.25;53.69
68128;SHT30;54931;52.098;21.006;2024-03-23T13:49:30;17.14;53.16
68128;SHT30;54931;52.098;21.006;2024-03-23T13:52:21;17.02;53.91
68128;SHT30;54931;52.098;21.006;2024-03-23T13:55:12;16.91;53.72
68128;SHT30;54931;52.098;21.006;2024-03-23T13:58:02;16.82;53.79
68128;SHT30;54931;52.098;21.006;2024-03-23T14:00:51;16.75;54.09
68128;SHT30;54931;52.098;21.006;2024-03-23T14:03:39;16.67;54.12
68128;SHT30;54931;52.098;21.006;2024-03-23T14:06:27;16.61;54.82
68128;SHT30;54931;52.098;21.006;2024-03-23T14:09:15;16.56;55.27
68128;SHT30;54931;52.098;21.006;2024-03-23T14:12:07;16.50;55.08
68128;SHT30;54931;52.098;21.006;2024-03-23T14:14:56;16.42;56.00
68128;SHT30;54931;52.098;21.006;2024-03-23T14:17:44;16.33;55.70
68128;SHT30;54931;52.098;21.006;2024-03-23T14:20:32;16.24;55.91
68128;SHT30;54931;52.098;21.006;2024-03-23T14:23:19;16.18;56.73
68128;SHT30;54931;52.098;21.006;2024-03-23T14:26:07;16.10;57.25
68128;SHT30;54931;52.098;21.006;2024-03-23T14:28:55;16.02;57.29
68128;SHT30;54931;52.098;21.006;2024-03-23T14:31:43;15.96;57.50
68128;SHT30;54931;52.098;21.006;2024-03-23T14:34:31;15.91;57.97
68128;SHT30;54931;52.098;21.006;2024-03-23T14:37:18;15.84;58.64
68128;SHT30;54931;52.098;21.006;2024-03-23T14:40:06;15.78;59.50
68128;SHT30;54931;52.098;21.006;2024-03-23T14:42:55;15.71;60.29
68128;SHT30;54931;52.098;21.006;2024-03-23T14:46:28;15.61;61.00
68128;SHT30;54931;52.098;21.006;2024-03-23T14:48:53;15.50;62.36
68128;SHT30;54931;52.098;21.006;2024-03-23T14:51:41;15.36;64.39
68128;SHT30;54931;52.098;21.006;2024-03-23T14:54:28;15.19;65.99
68128;SHT30;54931;52.098;21.006;2024-03-23T14:57:16;15.00;67.12
68128;SHT30;54931;52.098;21.006;2024-03-23T15:00:07;14.82;68.23
68128;SHT30;54931;52.098;21.006;2024-03-23T15:02:55;14.66;68.61
68128;SHT30;54931;52.098;21.006;2024-03-23T15:05:52;14.58;68.60
68128;SHT30;54931;52.098;21.006;2024-03-23T15:08:43;14.53;69.40
68128;SHT30;54931;52.098;21.006;2024-03-23T15:11:31;14.51;69.97
68128;SHT30;54931;52.098;21.006;2024-03-23T15:14:19;14.45;70.58
68128;SHT30;54931;52.098;21.006;2024-03-23T15:17:06;14.35;71.21
68128;SHT30;54931;52.098;21.006;2024-03-23T15:19:56;14.25;71.31
68128;SHT30;54931;52.098;21.006;2024-03-23T15:22:43;14.19;71.47
68128;SHT30;54931;52.098;21.006;2024-03-23T15:25:30;14.04;70.28
68128;SHT30;54931;52.098;21.006;2024-03-23T15:28:19;13.72;72.32
68128;SHT30;54931;52.098;21.006;2024-03-23T15:31:07;12.99;75.11
68128;SHT30;54931;52.098;21.006;2024-03-23T15:33:58;12.38;77.15
68128;SHT30;54931;52.098;21.006;2024-03-23T15:36:46;12.00;78.90
68128;SHT30;54931;52.098;21.006;2024-03-23T15:39:33;11.72;80.81
68128;SHT30;54931;52.098;21.006;2024-03-23T15:42:21;11.56;82.19
68128;SHT30;54931;52.098;21.006;2024-03-23T15:45:09;11.47;82.96
68128;SHT30;54931;52.098;21.006;2024-03-23T15:47:56;11.41;83.06
68128;SHT30;54931;52.098;21.006;2024-03-23T15:50:50;11.35;83.56
68128;SHT30;54931;52.098;21.006;2024-03-23T15:53:41;11.33;83.70
68128;SHT30;54931;52.098;21.006;2024-03-23T15:56:31;11.28;83.76
68128;SHT30;54931;52.098;21.006;2024-03-23T15:59:19;11.26;83.59
68128;SHT30;54931;52.098;21.006;2024-03-23T16:02:08;11.21;83.62
68128;SHT30;54931;52.098;21.006;2024-03-23T16:04:57;11.16;83.84
68128;SHT30;54931;52.098;21.006;2024-03-23T16:07:45;11.08;83.91
68128;SHT30;54931;52.098;21.006;2024-03-23T16:10:32;10.99;84.15
68128;SHT30;54931;52.098;21.006;2024-03-23T16:13:21;10.95;83.94
68128;SHT30;54931;52.098;21.006;2024-03-23T16:16:08;10.91;83.88
68128;SHT30;54931;52.098;21.006;2024-03-23T16:18:59;10.88;83.89
68128;SHT30;54931;52.098;21.006;2024-03-23T16:21:46;10.86;84.00
68128;SHT30;54931;52.098;21.006;2024-03-23T16:24:34;10.82;84.58
68128;SHT30;54931;52.098;21.006;2024-03-23T16:27:21;10.79;84.44
68128;SHT30;54931;52.098;21.006;2024-03-23T16:30:10;10.77;84.17
68128;SHT30;54931;52.098;21.006;2024-03-23T16:32:58;10.74;84.14
68128;SHT30;54931;52.098;21.006;2024-03-23T16:35:54;10.73;84.17
68128;SHT30;54931;52.098;21.006;2024-03-23T16:38:46;10.70;84.26
68128;SHT30;54931;52.098;21.006;2024-03-23T16:41:35;10.68;84.13
68128;SHT30;54931;52.098;21.006;2024-03-23T16:44:22;10.66;84.10
68128;SHT30;54931;52.098;21.006;2024-03-23T16:47:09;10.64;84.24
68128;SHT30;54931;52.098;21.006;2024-03-23T16:49:57;10.62;84.38
68128;SHT30;54931;52.098;21.006;2024-03-23T16:52:46;10.59;84.55
68128;SHT30;54931;52.098;21.006;2024-03-23T16:55:34;10.55;84.46
68128;SHT30;54931;52.098;21.006;2024-03-23T16:58:22;10.50;84.37
68128;SHT30;54931;52.098;21.006;2024-03-23T17:01:12;10.48;85.14
68128;SHT30;54931;52.098;21.006;2024-03-23T17:04:05;10.47;84.87
68128;SHT30;54931;52.098;21.006;2024-03-23T17:06:52;10.45;84.75
68128;SHT30;54931;52.098;21.006;2024-03-23T17:09:46;10.45;84.78
68128;SHT30;54931;52.098;21.006;2024-03-23T17:12:35;10.44;84.77
68128;SHT30;54931;52.098;21.006;2024-03-23T17:15:22;10.43;84.75
68128;SHT30;54931;52.098;21.006;2024-03-23T17:18:10;10.43;84.68
68128;SHT30;54931;52.098;21.006;2024-03-23T17:20:58;10.42;84.63
68128;SHT30;54931;52.098;21.006;2024-03-23T17:23:46;10.40;84.60
68128;SHT30;54931;52.098;21.006;2024-03-23T17:26:33;10.38;84.42
68128;SHT30;54931;52.098;21.006;2024-03-23T17:29:05;10.36;84.47
68128;SHT30;54931;52.098;21.006;2024-03-23T17:31:35;10.32;84.37
68128;SHT30;54931;52.098;21.006;2024-03-23T17:34:24;10.30;84.38
68128;SHT30;54931;52.098;21.006;2024-03-23T17:37:12;10.27;84.61
68128;SHT30;54931;52.098;21.006;2024-03-23T17:39:40;10.24;84.69
68128;SHT30;54931;52.098;21.006;2024-03-23T17:42:08;10.23;84.52
68128;SHT30;54931;52.098;21.006;2024-03-23T17:44:36;10.21;84.46
68128;SHT30;54931;52.098;21.006;2024-03-23T17:47:04;10.18;84.49
68128;SHT30;54931;52.098;21.006;2024-03-23T17:49:31;10.16;84.58
68128;SHT30;54931;52.098;21.006;2024-03-23T17:52:00;10.15;84.68
68128;SHT30;54931;52.098;21.006;2024-03-23T17:54:35;10.16;84.80
68128;SHT30;54931;52.098;21.006;2024-03-23T17:57:03;10.19;84.91
68128;SHT30;54931;52.098;21.006;2024-03-23T17:59:33;10.23;84.97
68128;SHT30;54931;52.098;21.006;2024-03-23T18:02:01;10.27;84.96
68128;SHT30;54931;52.098;21.006;2024-03-23T18:04:30;10.31;84.80
68128;SHT30;54931;52.098;21.006;2024-03-23T18:06:58;10.32;84.59
68128;SHT30;54931;52.098;21.006;2024-03-23T18:09:27;10.35;83.75
68128;SHT30;54931;52.098;21.006;2024-03-23T18:11:56;10.37;82.72
68128;SHT30;54931;52.098;21.006;2024-03-23T18:14:24;10.36;81.96
68128;SHT30;54931;52.098;21.006;2024-03-23T18:16:51;10.30;81.42
68128;SHT30;54931;52.098;21.006;2024-03-23T18:19:20;10.24;80.41
68128;SHT30;54931;52.098;21.006;2024-03-23T18:21:48;10.18;80.32
68128;SHT30;54931;52.098;21.006;2024-03-23T18:24:16;10.13;80.24
68128;SHT30;54931;52.098;21.006;2024-03-23T18:26:43;10.08;80.43